sensor_id;sensor_type;location;lat;lon;timestamp;pressure;altitude;pressure_sealevel;temperature
30765;BMP180;494;48.744;10.106;2023-07-16T07:28:10;95784.00;;;21.20
30765;BMP180;494;48.744;10.106;2023-07-16T07:30:39;95841.00;;;21.20
30765;BMP180;494;48.744;10.106;2023-07-16T07:33:08;95897.00;;;21.40
30765;BMP180;494;48.744;10.106;2023-07-16T07:35:36;95847.00;;;21.40
30765;BMP180;494;48.744;10.106;2023-07-16T07:38:05;95892.00;;;21.50
30765;BMP180;494;48.744;10.106;2023-07-16T08:04:43;95875.00;;;23.20
30765;BMP180;494;48.744;10.106;2023-07-16T08:07:19;95572.00;;;23.00
30765;BMP180;494;48.744;10.106;2023-07-16T08:09:58;95882.00;;;23.10
30765;BMP180;494;48.744;10.106;2023-07-16T08:12:32;95906.00;;;23.10
30765;BMP180;494;48.744;10.106;2023-07-16T08:15:08;95513.00;;;23.40
30765;BMP180;494;48.744;10.106;2023-07-16T08:17:42;95920.00;;;23.30
30765;BMP180;494;48.744;10.106;2023-07-16T08:20:26;95588.00;;;23.40
30765;BMP180;494;48.744;10.106;2023-07-16T08:23:25;95678.00;;;23.40
30765;BMP180;494;48.744;10.106;2023-07-16T08:25:55;95486.00;;;23.10
30765;BMP180;494;48.744;10.106;2023-07-16T08:28:30;95815.00;;;22.50
30765;BMP180;494;48.744;10.106;2023-07-16T08:31:02;95572.00;;;22.70
30765;BMP180;494;48.744;10.106;2023-07-16T08:33:33;95634.00;;;22.40
30765;BMP180;494;48.744;10.106;2023-07-16T08:36:08;95448.00;;;22.40
30765;BMP180;494;48.744;10.106;2023-07-16T08:38:48;95634.00;;;22.60
30765;BMP180;494;48.744;10.106;2023-07-16T08:41:19;95461.00;;;22.70
30765;BMP180;494;48.744;10.106;2023-07-16T08:44:08;95842.00;;;23.20
30765;BMP180;494;48.744;10.106;2023-07-16T08:47:05;95551.00;;;23.30
30765;BMP180;494;48.744;10.106;2023-07-16T08:50:42;95894.00;;;23.30
30765;BMP180;494;48.744;10.106;2023-07-16T08:53:30;95705.00;;;23.00
30765;BMP180;494;48.744;10.106;2023-07-16T08:56:24;95905.00;;;23.60
30765;BMP180;494;48.744;10.106;2023-07-16T09:02:07;95901.00;;;24.00
30765;BMP180;494;48.744;10.106;2023-07-16T09:04:40;95816.00;;;24.30
30765;BMP180;494;48.744;10.106;2023-07-16T09:07:11;95915.00;;;24.90
30765;BMP180;494;48.744;10.106;2023-07-16T09:09:55;95931.00;;;25.20
30765;BMP180;494;48.744;10.106;2023-07-16T09:12:34;95883.00;;;25.10
30765;BMP180;494;48.744;10.106;2023-07-16T09:15:06;95896.00;;;25.10
30765;BMP180;494;48.744;10.106;2023-07-16T09:17:47;95901.00;;;25.10
30765;BMP180;494;48.744;10.106;2023-07-16T09:20:22;95877.00;;;25.50
30765;BMP180;494;48.744;10.106;2023-07-16T09:23:00;95794.00;;;25.70
30765;BMP180;494;48.744;10.106;2023-07-16T09:25:46;95877.00;;;26.10
30765;BMP180;494;48.744;10.106;2023-07-16T09:28:25;95917.00;;;25.90
30765;BMP180;494;48.744;10.106;2023-07-16T09:31:07;95840.00;;;26.80
30765;BMP180;494;48.744;10.106;2023-07-16T09:34:09;95894.00;;;26.50
30765;BMP180;494;48.744;10.106;2023-07-16T09:36:39;95865.00;;;27.00
30765;BMP180;494;48.744;10.106;2023-07-16T09:39:20;95854.00;;;26.70
30765;BMP180;494;48.744;10.106;2023-07-16T09:41:56;95911.00;;;26.30
30765;BMP180;494;48.744;10.106;2023-07-16T09:44:38;95747.00;;;25.90
30765;BMP180;494;48.744;10.106;2023-07-16T09:47:29;95921.00;;;25.50
30765;BMP180;494;48.744;10.106;2023-07-16T09:49:59;95930.00;;;25.90
30765;BMP180;494;48.744;10.106;2023-07-16T09:52:31;95849.00;;;26.00
30765;BMP180;494;48.744;10.106;2023-07-16T09:55:04;95906.00;;;26.20
30765;BMP180;494;48.744;10.106;2023-07-16T09:57:41;95954.00;;;26.40
30765;BMP180;494;48.744;10.106;2023-07-16T10:00:13;95693.00;;;26.80
30765;BMP180;494;48.744;10.106;2023-07-16T10:02:52;95855.00;;;27.00
30765;BMP180;494;48.744;10.106;2023-07-16T10:06:06;95914.00;;;27.20
30765;BMP180;494;48.744;10.106;2023-07-16T10:08:39;95920.00;;;27.20
30765;BMP180;494;48.744;10.106;2023-07-16T10:11:17;95868.00;;;27.80
30765;BMP180;494;48.744;10.106;2023-07-16T10:13:50;95911.00;;;27.80
30765;BMP180;494;48.744;10.106;2023-07-16T10:16:23;95917.00;;;28.00
30765;BMP180;494;48.744;10.106;2023-07-16T10:18:58;95908.00;;;27.80
30765;BMP180;494;48.744;10.106;2023-07-16T10:21:37;95678.00;;;27.70
30765;BMP180;494;48.744;10.106;2023-07-16T10:24:17;95917.00;;;27.60
30765;BMP180;494;48.744;10.106;2023-07-16T10:27:03;95692.00;;;28.00
30765;BMP180;494;48.744;10.106;2023-07-16T10:29:35;95918.00;;;28.00
30765;BMP180;494;48.744;10.106;2023-07-16T10:32:12;95904.00;;;27.50
30765;BMP180;494;48.744;10.106;2023-07-16T10:34:44;95864.00;;;27.70
30765;BMP180;494;48.744;10.106;2023-07-16T10:37:14;95838.00;;;28.10
30765;BMP180;494;48.744;10.106;2023-07-16T10:39:47;95930.00;;;28.30
30765;BMP180;494;48.744;10.106;2023-07-16T10:42:19;95931.00;;;28.20
30765;BMP180;494;48.744;10.106;2023-07-16T10:44:54;95894.00;;;28.40
30765;BMP180;494;48.744;10.106;2023-07-16T10:47:34;95862.00;;;28.20
30765;BMP180;494;48.744;10.106;2023-07-16T10:50:09;95902.00;;;28.40
30765;BMP180;494;48.744;10.106;2023-07-16T10:52:41;95900.00;;;28.40
30765;BMP180;494;48.744;10.106;2023-07-16T10:55:13;95914.00;;;29.00
30765;BMP180;494;48.744;10.106;2023-07-16T10:57:52;95897.00;;;29.30
30765;BMP180;494;48.744;10.106;2023-07-16T11:00:27;95838.00;;;29.70
30765;BMP180;494;48.744;10.106;2023-07-16T11:02:58;95882.00;;;30.10
30765;BMP180;494;48.744;10.106;2023-07-16T11:05:35;95895.00;;;29.90
30765;BMP180;494;48.744;10.106;2023-07-16T11:08:06;95880.00;;;29.70
30765;BMP180;494;48.744;10.106;2023-07-16T11:10:39;95832.00;;;28.90
30765;BMP180;494;48.744;10.106;2023-07-16T11:13:16;95897.00;;;28.70
30765;BMP180;494;48.744;10.106;2023-07-16T11:15:46;95752.00;;;28.70
30765;BMP180;494;48.744;10.106;2023-07-16T11:18:15;95808.00;;;28.90
30765;BMP180;494;48.744;10.106;2023-07-16T11:20:44;95870.00;;;28.80
30765;BMP180;494;48.744;10.106;2023-07-16T11:23:14;95847.00;;;28.90
30765;BMP180;494;48.744;10.106;2023-07-16T11:25:47;95908.00;;;29.50
30765;BMP180;494;48.744;10.106;2023-07-16T11:28:15;95758.00;;;29.50
30765;BMP180;494;48.744;10.106;2023-07-16T11:30:47;95854.00;;;29.10
30765;BMP180;494;48.744;10.106;2023-07-16T11:33:17;95921.00;;;28.80
30765;BMP180;494;48.744;10.106;2023-07-16T11:35:48;95844.00;;;28.70
30765;BMP180;494;48.744;10.106;2023-07-16T11:38:21;95805.00;;;28.80
30765;BMP180;494;48.744;10.106;2023-07-16T11:40:50;95905.00;;;28.70
30765;BMP180;494;48.744;10.106;2023-07-16T11:43:19;95900.00;;;29.20
30765;BMP180;494;48.744;10.106;2023-07-16T11:45:50;95838.00;;;29.40
30765;BMP180;494;48.744;10.106;2023-07-16T11:48:19;95833.00;;;30.00
30765;BMP180;494;48.744;10.106;2023-07-16T11:50:47;95869.00;;;30.40
30765;BMP180;494;48.744;10.106;2023-07-16T11:53:17;95888.00;;;30.50
30765;BMP180;494;48.744;10.106;2023-07-16T11:55:47;95814.00;;;30.60
30765;BMP180;494;48.744;10.106;2023-07-16T11:58:17;95559.00;;;30.10
30765;BMP180;494;48.744;10.106;2023-07-16T12:00:52;95916.00;;;30.10
30765;BMP180;494;48.744;10.106;2023-07-16T12:03:21;95841.00;;;30.00
30765;BMP180;494;48.744;10.106;2023-07-16T12:05:52;95757.00;;;30.50
30765;BMP180;494;48.744;10.106;2023-07-16T12:08:23;95672.00;;;31.00
30765;BMP180;494;48.744;10.106;2023-07-16T12:10:58;95876.00;;;31.60
30765;BMP180;494;48.744;10.106;2023-07-16T12:13:31;95889.00;;;31.70
30765;BMP180;494;48.744;10.106;2023-07-16T12:16:04;95904.00;;;32.00
30765;BMP180;494;48.744;10.106;2023-07-16T12:18:35;95772.00;;;32.30
30765;BMP180;494;48.744;10.106;2023-07-16T12:21:04;95806.00;;;31.90
30765;BMP180;494;48.744;10.106;2023-07-16T12:23:34;95808.00;;;32.00
30765;BMP180;494;48.744;10.106;2023-07-16T12:26:06;95990.00;;;32.00
30765;BMP180;494;48.744;10.106;2023-07-16T12:28:37;95772.00;;;32.20
30765;BMP180;494;48.744;10.106;2023-07-16T12:31:22;95793.00;;;32.10
30765;BMP180;494;48.744;10.106;2023-07-16T12:33:54;95781.00;;;32.30
30765;BMP180;494;48.744;10.106;2023-07-16T12:36:23;95679.00;;;31.60
30765;BMP180;494;48.744;10.106;2023-07-16T12:38:52;95832.00;;;32.20
30765;BMP180;494;48.744;10.106;2023-07-16T12:41:24;95868.00;;;31.90
30765;BMP180;494;48.744;10.106;2023-07-16T12:43:54;95929.00;;;31.10
30765;BMP180;494;48.744;10.106;2023-07-16T12:46:25;95870.00;;;30.70
30765;BMP180;494;48.744;10.106;2023-07-16T13:32:07;95541.00;;;30.10
30765;BMP180;494;48.744;10.106;2023-07-16T13:35:47;95841.00;;;31.00
30765;BMP180;494;48.744;10.106;2023-07-16T13:39:09;95857.00;;;31.10
30765;BMP180;494;48.744;10.106;2023-07-16T13:42:26;95548.00;;;32.60
30765;BMP180;494;48.744;10.106;2023-07-16T13:45:31;95766.00;;;32.40
30765;BMP180;494;48.744;10.106;2023-07-16T13:48:10;95584.00;;;33.40
30765;BMP180;494;48.744;10.106;2023-07-16T13:50:42;95828.00;;;33.50
30765;BMP180;494;48.744;10.106;2023-07-16T13:53:18;95846.00;;;34.30
30765;BMP180;494;48.744;10.106;2023-07-16T13:56:02;95594.00;;;34.60
30765;BMP180;494;48.744;10.106;2023-07-16T13:58:48;95862.00;;;33.60
30765;BMP180;494;48.744;10.106;2023-07-16T14:16:00;95677.00;;;33.40
30765;BMP180;494;48.744;10.106;2023-07-16T14:19:03;95833.00;;;33.50
30765;BMP180;494;48.744;10.106;2023-07-16T14:43:08;95583.00;;;30.90
30765;BMP180;494;48.744;10.106;2023-07-16T14:46:05;95890.00;;;30.40
30765;BMP180;494;48.744;10.106;2023-07-16T14:58:34;95869.00;;;32.10
30765;BMP180;494;48.744;10.106;2023-07-16T15:01:06;95855.00;;;32.40
30765;BMP180;494;48.744;10.106;2023-07-16T15:03:35;95797.00;;;32.10
30765;BMP180;494;48.744;10.106;2023-07-16T15:06:08;95834.00;;;31.70
30765;BMP180;494;48.744;10.106;2023-07-16T15:08:37;95582.00;;;31.30
30765;BMP180;494;48.744;10.106;2023-07-16T15:11:06;95700.00;;;30.90
30765;BMP180;494;48.744;10.106;2023-07-16T15:13:49;95445.00;;;30.90
30765;BMP180;494;48.744;10.106;2023-07-16T15:16:25;95845.00;;;31.20
30765;BMP180;494;48.744;10.106;2023-07-16T15:19:15;95828.00;;;31.40
30765;BMP180;494;48.744;10.106;2023-07-16T15:22:15;95473.00;;;32.90
30765;BMP180;494;48.744;10.106;2023-07-16T15:24:51;95822.00;;;33.60
30765;BMP180;494;48.744;10.106;2023-07-16T15:27:56;95876.00;;;33.30
30765;BMP180;494;48.744;10.106;2023-07-16T15:31:13;95535.00;;;33.80
30765;BMP180;494;48.744;10.106;2023-07-16T15:33:47;95728.00;;;33.80
30765;BMP180;494;48.744;10.106;2023-07-16T15:36:18;95509.00;;;33.30
30765;BMP180;494;48.744;10.106;2023-07-16T15:38:50;95555.00;;;33.80
30765;BMP180;494;48.744;10.106;2023-07-16T15:45:18;95850.00;;;33.30
30765;BMP180;494;48.744;10.106;2023-07-16T15:48:28;95807.00;;;32.70
30765;BMP180;494;48.744;10.106;2023-07-16T15:50:59;95798.00;;;32.70
30765;BMP180;494;48.744;10.106;2023-07-16T15:53:32;95818.00;;;33.10
30765;BMP180;494;48.744;10.106;2023-07-16T15:56:00;95788.00;;;33.40
30765;BMP180;494;48.744;10.106;2023-07-16T15:58:30;95854.00;;;33.30
30765;BMP180;494;48.744;10.106;2023-07-16T16:01:06;95805.00;;;33.80
30765;BMP180;494;48.744;10.106;2023-07-16T16:03:40;95655.00;;;32.70
30765;BMP180;494;48.744;10.106;2023-07-16T16:06:14;95831.00;;;34.00
30765;BMP180;494;48.744;10.106;2023-07-16T16:08:45;95814.00;;;33.70
30765;BMP180;494;48.744;10.106;2023-07-16T16:11:16;95779.00;;;34.10
30765;BMP180;494;48.744;10.106;2023-07-16T16:13:46;95806.00;;;34.20
30765;BMP180;494;48.744;10.106;2023-07-16T16:16:16;95809.00;;;34.40
30765;BMP180;494;48.744;10.106;2023-07-16T16:18:50;95745.00;;;34.40
30765;BMP180;494;48.744;10.106;2023-07-16T16:21:21;95792.00;;;34.60
30765;BMP180;494;48.744;10.106;2023-07-16T16:23:52;95762.00;;;34.30
30765;BMP180;494;48.744;10.106;2023-07-16T16:26:21;95701.00;;;33.60
30765;BMP180;494;48.744;10.106;2023-07-16T16:28:53;95786.00;;;33.70
30765;BMP180;494;48.744;10.106;2023-07-16T16:31:23;95797.00;;;33.70
30765;BMP180;494;48.744;10.106;2023-07-16T16:33:55;95793.00;;;33.50
30765;BMP180;494;48.744;10.106;2023-07-16T16:36:26;95809.00;;;32.90
30765;BMP180;494;48.744;10.106;2023-07-16T16:38:55;95743.00;;;32.70
30765;BMP180;494;48.744;10.106;2023-07-16T16:41:26;95808.00;;;32.20
30765;BMP180;494;48.744;10.106;2023-07-16T16:43:58;95812.00;;;31.90
30765;BMP180;494;48.744;10.106;2023-07-16T16:46:33;95812.00;;;31.60
30765;BMP180;494;48.744;10.106;2023-07-16T16:49:04;95856.00;;;31.30
30765;BMP180;494;48.744;10.106;2023-07-16T16:51:33;95800.00;;;31.20
30765;BMP180;494;48.744;10.106;2023-07-16T16:54:02;95824.00;;;30.80
30765;BMP180;494;48.744;10.106;2023-07-16T16:56:32;95661.00;;;31.00
30765;BMP180;494;48.744;10.106;2023-07-16T16:59:03;95798.00;;;30.70
30765;BMP180;494;48.744;10.106;2023-07-16T17:01:33;95763.00;;;30.60
30765;BMP180;494;48.744;10.106;2023-07-16T17:04:04;95763.00;;;30.50
30765;BMP180;494;48.744;10.106;2023-07-16T17:06:35;95650.00;;;30.60
30765;BMP180;494;48.744;10.106;2023-07-16T17:09:08;95769.00;;;29.00
30765;BMP180;494;48.744;10.106;2023-07-16T17:11:38;95734.00;;;30.40
30765;BMP180;494;48.744;10.106;2023-07-16T17:14:07;95755.00;;;30.50
30765;BMP180;494;48.744;10.106;2023-07-16T17:16:36;95741.00;;;30.40
30765;BMP180;494;48.744;10.106;2023-07-16T17:19:07;95773.00;;;30.30
30765;BMP180;494;48.744;10.106;2023-07-16T17:21:36;95726.00;;;29.50
30765;BMP180;494;48.744;10.106;2023-07-16T17:24:05;95709.00;;;30.40
30765;BMP180;494;48.744;10.106;2023-07-16T17:26:34;95681.00;;;29.90
30765;BMP180;494;48.744;10.106;2023-07-16T17:29:05;95806.00;;;30.20
30765;BMP180;494;48.744;10.106;2023-07-16T17:31:35;95801.00;;;30.10
30765;BMP180;494;48.744;10.106;2023-07-16T17:34:09;95756.00;;;30.30
30765;BMP180;494;48.744;10.106;2023-07-16T17:36:41;95812.00;;;29.40
30765;BMP180;494;48.744;10.106;2023-07-16T17:39:11;95802.00;;;30.00
30765;BMP180;494;48.744;10.106;2023-07-16T17:41:46;95826.00;;;29.90
30765;BMP180;494;48.744;10.106;2023-07-16T17:44:18;95705.00;;;29.60
30765;BMP180;494;48.744;10.106;2023-07-16T17:46:49;95838.00;;;29.20
30765;BMP180;494;48.744;10.106;2023-07-16T17:49:23;95588.00;;;29.50
30765;BMP180;494;48.744;10.106;2023-07-16T17:51:54;95806.00;;;29.50
30765;BMP180;494;48.744;10.106;2023-07-16T17:54:27;95757.00;;;29.20
30765;BMP180;494;48.744;10.106;2023-07-16T17:56:58;95851.00;;;29.20
30765;BMP180;494;48.744;10.106;2023-07-16T17:59:31;95838.00;;;29.20
30765;BMP180;494;48.744;10.106;2023-07-16T18:02:00;95710.00;;;29.20
30765;BMP180;494;48.744;10.106;2023-07-16T18:04:34;95817.00;;;28.80
30765;BMP180;494;48.744;10.106;2023-07-16T18:07:04;95820.00;;;28.90
30765;BMP180;494;48.744;10.106;2023-07-16T18:09:34;95806.00;;;28.30
30765;BMP180;494;48.744;10.106;2023-07-16T18:12:07;95820.00;;;28.60
30765;BMP180;494;48.744;10.106;2023-07-16T18:14:39;95813.00;;;28.50
30765;BMP180;494;48.744;10.106;2023-07-16T18:17:09;95574.00;;;28.40
30765;BMP180;494;48.744;10.106;2023-07-16T18:19:49;95677.00;;;27.60
30765;BMP180;494;48.744;10.106;2023-07-16T18:22:27;95452.00;;;27.90
30765;BMP180;494;48.744;10.106;2023-07-16T18:25:00;95819.00;;;27.90
30765;BMP180;494;48.744;10.106;2023-07-16T18:37:31;95741.00;;;26.10
30765;BMP180;494;48.744;10.106;2023-07-16T18:40:15;95673.00;;;26.50
30765;BMP180;494;48.744;10.106;2023-07-16T18:46:17;95694.00;;;25.60
30765;BMP180;494;48.744;10.106;2023-07-16T18:49:37;95829.00;;;25.70
30765;BMP180;494;48.744;10.106;2023-07-16T18:52:07;95730.00;;;25.30
30765;BMP180;494;48.744;10.106;2023-07-16T18:54:43;95835.00;;;25.60
30765;BMP180;494;48.744;10.106;2023-07-16T18:57:16;95845.00;;;25.50
30765;BMP180;494;48.744;10.106;2023-07-16T19:00:01;95812.00;;;25.30
30765;BMP180;494;48.744;10.106;2023-07-16T19:02:34;95753.00;;;24.60
30765;BMP180;494;48.744;10.106;2023-07-16T19:05:05;95342.00;;;25.20
30765;BMP180;494;48.744;10.106;2023-07-16T19:07:38;95850.00;;;25.10
30765;BMP180;494;48.744;10.106;2023-07-16T19:10:10;95823.00;;;24.90
30765;BMP180;494;48.744;10.106;2023-07-16T19:12:43;95847.00;;;24.70
30765;BMP180;494;48.744;10.106;2023-07-16T19:15:16;95835.00;;;24.60
30765;BMP180;494;48.744;10.106;2023-07-16T19:18:08;95828.00;;;24.40
30765;BMP180;494;48.744;10.106;2023-07-16T19:20:40;95941.00;;;24.40
30765;BMP180;494;48.744;10.106;2023-07-16T19:23:25;95604.00;;;22.90
30765;BMP180;494;48.744;10.106;2023-07-16T19:26:16;95680.00;;;24.10
30765;BMP180;494;48.744;10.106;2023-07-16T19:28:48;95797.00;;;24.00
30765;BMP180;494;48.744;10.106;2023-07-16T19:31:38;95875.00;;;23.80
30765;BMP180;494;48.744;10.106;2023-07-16T19:34:12;95836.00;;;23.80
30765;BMP180;494;48.744;10.106;2023-07-16T19:36:44;95884.00;;;23.40
30765;BMP180;494;48.744;10.106;2023-07-16T19:39:18;95881.00;;;23.10
30765;BMP180;494;48.744;10.106;2023-07-16T19:41:51;95781.00;;;23.50
30765;BMP180;494;48.744;10.106;2023-07-16T19:44:22;95589.00;;;23.30
30765;BMP180;494;48.744;10.106;2023-07-16T19:47:05;95887.00;;;23.20
30765;BMP180;494;48.744;10.106;2023-07-16T19:49:44;95915.00;;;23.00
30765;BMP180;494;48.744;10.106;2023-07-16T19:52:15;95806.00;;;23.00
30765;BMP180;494;48.744;10.106;2023-07-16T19:55:20;95800.00;;;23.00
30765;BMP180;494;48.744;10.106;2023-07-16T19:58:12;95759.00;;;22.10
30765;BMP180;494;48.744;10.106;2023-07-16T20:00:44;95792.00;;;22.70
30765;BMP180;494;48.744;10.106;2023-07-16T20:03:14;95863.00;;;22.60
30765;BMP180;494;48.744;10.106;2023-07-16T20:05:48;95916.00;;;22.50
30765;BMP180;494;48.744;10.106;2023-07-16T20:08:23;95780.00;;;22.10
30765;BMP180;494;48.744;10.106;2023-07-16T20:10:55;95917.00;;;22.40
30765;BMP180;494;48.744;10.106;2023-07-16T20:13:26;95907.00;;;22.40
30765;BMP180;494;48.744;10.106;2023-07-16T20:15:55;95796.00;;;22.20
30765;BMP180;494;48.744;10.106;2023-07-16T20:18:25;95929.00;;;22.00
30765;BMP180;494;48.744;10.106;2023-07-16T20:20:56;95850.00;;;22.10
30765;BMP180;494;48.744;10.106;2023-07-16T20:23:27;95825.00;;;22.40
30765;BMP180;494;48.744;10.106;2023-07-16T20:25:57;95856.00;;;22.30
30765;BMP180;494;48.744;10.106;2023-07-16T20:28:29;95839.00;;;22.20
30765;BMP180;494;48.744;10.106;2023-07-16T20:30:59;95872.00;;;22.00
30765;BMP180;494;48.744;10.106;2023-07-16T20:33:30;95797.00;;;22.00
30765;BMP180;494;48.744;10.106;2023-07-16T20:36:01;95927.00;;;22.00
30765;BMP180;494;48.744;10.106;2023-07-16T20:38:32;95790.00;;;21.90
30765;BMP180;494;48.744;10.106;2023-07-16T20:41:01;95897.00;;;21.80
30765;BMP180;494;48.744;10.106;2023-07-16T20:43:32;95873.00;;;21.70
30765;BMP180;494;48.744;10.106;2023-07-16T20:46:01;95814.00;;;21.70
30765;BMP180;494;48.744;10.106;2023-07-16T20:48:41;95788.00;;;21.40
30765;BMP180;494;48.744;10.106;2023-07-16T20:51:10;95894.00;;;21.40
30765;BMP180;494;48.744;10.106;2023-07-16T20:53:43;95942.00;;;21.10
30765;BMP180;494;48.744;10.106;2023-07-16T20:56:13;95943.00;;;19.80
30765;BMP180;494;48.744;10.106;2023-07-16T20:58:49;95693.00;;;20.70
30765;BMP180;494;48.744;10.106;2023-07-16T21:01:47;95559.00;;;20.70
30765;BMP180;494;48.744;10.106;2023-07-16T21:04:45;95765.00;;;20.70
30765;BMP180;494;48.744;10.106;2023-07-16T21:07:47;95779.00;;;20.80
30765;BMP180;494;48.744;10.106;2023-07-16T21:10:44;95942.00;;;20.80
30765;BMP180;494;48.744;10.106;2023-07-16T21:17:29;95904.00;;;20.70
30765;BMP180;494;48.744;10.106;2023-07-16T21:20:33;95929.00;;;20.70
30765;BMP180;494;48.744;10.106;2023-07-16T21:23:30;95979.00;;;20.70
30765;BMP180;494;48.744;10.106;2023-07-16T21:26:15;95993.00;;;20.70
30765;BMP180;494;48.744;10.106;2023-07-16T21:29:24;95916.00;;;20.30
30765;BMP180;494;48.744;10.106;2023-07-16T21:40:25;95689.00;;;20.80
30765;BMP180;494;48.744;10.106;2023-07-16T21:43:26;95498.00;;;20.80
30765;BMP180;494;48.744;10.106;2023-07-16T21:46:25;95911.00;;;20.70
30765;BMP180;494;48.744;10.106;2023-07-16T21:49:37;95855.00;;;20.50
30765;BMP180;494;48.744;10.106;2023-07-16T21:52:46;95918.00;;;20.80
30765;BMP180;494;48.744;10.106;2023-07-16T21:55:18;95367.00;;;20.60
30765;BMP180;494;48.744;10.106;2023-07-16T21:58:24;95510.00;;;20.30
30765;BMP180;494;48.744;10.106;2023-07-16T22:01:02;95398.00;;;20.40
30765;BMP180;494;48.744;10.106;2023-07-16T22:04:05;95476.00;;;20.40
30765;BMP180;494;48.744;10.106;2023-07-16T22:07:11;95654.00;;;20.30
